Time;durP1;ratioP1;P1;durP2;ratioP2;P2;SDS_P1;SDS_P2;PMS_P1;PMS_P2;Temp;Humidity;BMP_temperature;BMP_pressure;BME280_temperature;BME280_humidity;BME280_pressure;Samples;Min_cycle;Max_cycle;Signal;HPM_P1;HPM_P2
2022/01/11 00:01:43;;;;;;;9.52;7.78;;;2.70;99.90;;;;;;4896282;29;20300;-62
2022/01/11 00:04:16;;;;;;;8.38;7.68;;;2.70;99.90;;;;;;4896085;29;20205;-62
2022/01/11 00:06:47;;;;;;;7.93;7.22;;;2.70;99.90;;;;;;4896462;29;20313;-62
2022/01/11 00:09:30;;;;;;;7.70;6.90;;;2.70;99.90;;;;;;4896339;29;20205;-62
2022/01/11 00:11:58;;;;;;;8.07;7.32;;;2.60;99.90;;;;;;4896451;29;20296;-62
2022/01/11 00:14:27;;;;;;;8.80;7.30;;;2.60;99.90;;;;;;4914474;29;20215;-61
2022/01/11 00:16:54;;;;;;;7.82;7.03;;;2.70;99.90;;;;;;4896125;29;20261;-62
2022/01/11 00:19:24;;;;;;;7.72;7.03;;;2.70;99.90;;;;;;4916569;29;20296;-61
2022/01/11 00:21:52;;;;;;;7.35;6.75;;;2.80;99.90;;;;;;4904308;29;20198;-62
2022/01/11 00:24:29;;;;;;;8.68;7.97;;;2.80;99.90;;;;;;4894159;29;20240;-62
2022/01/11 00:26:58;;;;;;;8.05;7.30;;;2.80;99.90;;;;;;4895305;29;20691;-62
2022/01/11 00:29:27;;;;;;;7.85;7.15;;;2.90;99.90;;;;;;4899778;29;20298;-62
2022/01/11 00:31:58;;;;;;;7.28;6.65;;;2.80;99.90;;;;;;4899777;29;20209;-61
2022/01/11 00:34:38;;;;;;;9.57;7.20;;;3.00;99.90;;;;;;4899783;29;20237;-62
2022/01/11 00:37:06;;;;;;;8.13;7.32;;;3.00;99.90;;;;;;4897234;29;20319;-62
2022/01/11 00:39:34;;;;;;;8.32;7.18;;;2.90;99.90;;;;;;4899673;29;20308;-62
2022/01/11 00:42:02;;;;;;;7.00;6.40;;;2.90;99.90;;;;;;4899395;29;20240;-61
2022/01/11 00:44:30;;;;;;;6.57;5.75;;;2.90;99.90;;;;;;4899913;29;20616;-62
2022/01/11 00:46:58;;;;;;;7.60;6.97;;;2.90;99.90;;;;;;4899548;29;20664;-62
2022/01/11 00:49:27;;;;;;;6.28;5.75;;;3.00;99.90;;;;;;4899413;29;20691;-63
2022/01/11 00:51:55;;;;;;;8.68;7.40;;;3.00;99.90;;;;;;4899483;29;20280;-62
2022/01/11 00:54:23;;;;;;;7.30;6.60;;;3.10;99.90;;;;;;4899794;29;20205;-62
2022/01/11 00:56:51;;;;;;;8.60;7.30;;;3.30;99.90;;;;;;4899382;29;20320;-63
2022/01/11 00:59:19;;;;;;;8.00;7.30;;;3.50;99.90;;;;;;4899416;29;20269;-63
2022/01/11 01:01:47;;;;;;;7.28;6.60;;;3.60;99.90;;;;;;4899245;29;20517;-63
2022/01/11 01:04:15;;;;;;;7.70;6.88;;;3.80;99.90;;;;;;4899000;29;20257;-62
2022/01/11 01:06:45;;;;;;;8.02;6.85;;;3.90;99.90;;;;;;4899331;29;20673;-62
2022/01/11 01:09:13;;;;;;;6.22;5.80;;;3.90;99.90;;;;;;4899103;29;20233;-63
2022/01/11 01:11:43;;;;;;;6.22;5.57;;;4.00;99.90;;;;;;4899466;29;20304;-63
2022/01/11 01:14:12;;;;;;;9.10;5.80;;;3.90;99.90;;;;;;4898998;29;20237;-62
2022/01/11 01:16:40;;;;;;;9.52;5.93;;;3.90;99.90;;;;;;4899125;29;20320;-62
2022/01/11 01:19:08;;;;;;;6.60;6.00;;;3.90;99.90;;;;;;4898945;29;20248;-63
2022/01/11 01:21:38;;;;;;;6.07;5.47;;;3.90;99.90;;;;;;4910689;29;20231;-62
2022/01/11 01:24:11;;;;;;;6.88;5.68;;;3.80;99.90;;;;;;4917266;29;20247;-62
2022/01/11 01:26:39;;;;;;;5.45;4.85;;;3.80;99.90;;;;;;4910908;29;20221;-62
2022/01/11 01:29:07;;;;;;;6.82;5.57;;;3.70;99.90;;;;;;4902198;29;20635;-62
2022/01/11 01:31:35;;;;;;;8.15;6.18;;;3.60;99.90;;;;;;4897739;29;20229;-62
2022/01/11 01:34:03;;;;;;;6.35;5.85;;;3.60;99.90;;;;;;4898189;29;20202;-62
2022/01/11 01:36:31;;;;;;;6.68;5.95;;;3.60;99.90;;;;;;4898398;29;20738;-62
2022/01/11 01:39:00;;;;;;;6.10;5.53;;;3.60;99.90;;;;;;4898654;29;20198;-61
2022/01/11 01:41:29;;;;;;;8.60;6.63;;;3.50;99.90;;;;;;4898625;29;20247;-62
2022/01/11 01:44:00;;;;;;;6.70;6.07;;;3.50;99.90;;;;;;4898560;29;20292;-62
2022/01/11 01:46:29;;;;;;;7.38;6.78;;;3.30;99.90;;;;;;4898505;29;20232;-62
2022/01/11 01:48:59;;;;;;;8.80;6.90;;;3.00;99.90;;;;;;4898263;29;20240;-62
2022/01/11 01:51:28;;;;;;;10.32;7.50;;;2.80;99.90;;;;;;4897221;29;20209;-62
2022/01/11 01:53:56;;;;;;;8.27;7.47;;;2.70;99.90;;;;;;4898308;29;20722;-63
2022/01/11 01:56:26;;;;;;;8.82;7.88;;;2.50;99.90;;;;;;4898359;29;20272;-62
2022/01/11 01:58:56;;;;;;;8.65;7.95;;;2.20;99.90;;;;;;4898183;29;20237;-62
2022/01/11 02:01:26;;;;;;;8.73;7.82;;;2.10;99.90;;;;;;4898104;29;20299;-62
2022/01/11 02:03:54;;;;;;;9.40;7.90;;;2.20;99.90;;;;;;4897817;29;20217;-62
2022/01/11 02:06:22;;;;;;;8.65;7.95;;;2.40;99.90;;;;;;4898125;29;20264;-63
2022/01/11 02:08:51;;;;;;;9.57;6.57;;;2.20;99.90;;;;;;4898041;29;20308;-63
2022/01/11 02:11:21;;;;;;;7.90;6.65;;;2.80;99.90;;;;;;4898277;29;20671;-62
2022/01/11 02:13:49;;;;;;;8.55;7.75;;;2.70;99.90;;;;;;4898198;29;20305;-63
2022/01/11 02:16:21;;;;;;;8.48;7.45;;;2.70;99.90;;;;;;4897973;29;20304;-62
2022/01/11 02:18:50;;;;;;;10.80;7.28;;;2.70;99.90;;;;;;4897924;29;20225;-62
2022/01/11 02:21:20;;;;;;;8.43;7.68;;;2.70;99.90;;;;;;4898077;29;20288;-62
2022/01/11 02:23:49;;;;;;;7.93;7.22;;;2.60;99.90;;;;;;4897688;29;20244;-63
2022/01/11 02:26:18;;;;;;;8.25;7.55;;;2.40;99.90;;;;;;4897799;29;20264;-62
2022/01/11 02:28:46;;;;;;;8.73;7.05;;;2.40;99.90;;;;;;4897501;29;20264;-62
2022/01/11 02:31:14;;;;;;;7.90;7.20;;;2.60;99.90;;;;;;4899377;29;20253;-63
2022/01/11 02:33:46;;;;;;;7.75;7.10;;;2.50;99.90;;;;;;4898766;29;20260;-63
2022/01/11 02:36:15;;;;;;;15.13;8.52;;;2.30;99.90;;;;;;4897521;29;20394;-62
2022/01/11 02:38:46;;;;;;;7.78;6.97;;;2.40;99.90;;;;;;4915381;29;20200;-63
2022/01/11 02:41:14;;;;;;;9.43;7.40;;;2.40;99.90;;;;;;4891057;29;20292;-63
2022/01/11 02:43:43;;;;;;;12.43;8.32;;;2.30;99.90;;;;;;4897328;29;20252;-63
2022/01/11 02:46:11;;;;;;;7.88;7.10;;;2.20;99.90;;;;;;4891661;29;20232;-63
2022/01/11 02:48:39;;;;;;;8.23;7.43;;;2.00;99.90;;;;;;4897094;29;20217;-63
2022/01/11 02:51:07;;;;;;;9.32;8.43;;;2.00;99.90;;;;;;4897317;29;20638;-63
2022/01/11 02:53:40;;;;;;;8.50;7.53;;;1.90;99.90;;;;;;4897139;29;20296;-63
2022/01/11 02:56:10;;;;;;;8.63;7.18;;;2.00;99.90;;;;;;4897232;29;20814;-63
2022/01/11 02:58:38;;;;;;;10.10;8.13;;;1.90;99.90;;;;;;4897030;29;20293;-62
2022/01/11 03:01:08;;;;;;;10.80;7.55;;;2.10;99.90;;;;;;4897263;29;20628;-63
2022/01/11 03:03:37;;;;;;;9.30;8.07;;;2.10;99.90;;;;;;4896693;29;20205;-63
2022/01/11 03:06:06;;;;;;;10.85;8.10;;;2.20;99.90;;;;;;4893092;29;20268;-62
2022/01/11 03:08:38;;;;;;;9.27;8.32;;;2.30;99.90;;;;;;4897014;29;20248;-63
2022/01/11 03:11:07;;;;;;;10.35;8.48;;;2.50;99.90;;;;;;4897208;29;20257;-63
2022/01/11 03:13:38;;;;;;;9.75;7.32;;;2.50;99.90;;;;;;4896881;29;20317;-63
2022/01/11 03:16:06;;;;;;;10.02;7.10;;;2.40;99.90;;;;;;4896996;29;20257;-63
2022/01/11 03:18:35;;;;;;;8.77;7.97;;;2.50;99.90;;;;;;4896987;29;20248;-62
2022/01/11 03:21:04;;;;;;;8.50;7.60;;;2.30;99.90;;;;;;4896866;29;20297;-62
2022/01/11 03:23:32;;;;;;;8.88;7.97;;;2.30;99.90;;;;;;4896740;29;20284;-63
2022/01/11 03:26:02;;;;;;;11.75;8.10;;;2.20;99.90;;;;;;4896785;29;20916;-63
2022/01/11 03:28:30;;;;;;;11.70;9.13;;;2.10;99.90;;;;;;4896578;29;20233;-63
2022/01/11 03:31:00;;;;;;;9.73;8.93;;;2.30;99.90;;;;;;4896695;29;20293;-64
2022/01/11 03:33:29;;;;;;;12.77;9.10;;;2.40;99.90;;;;;;4896287;29;20214;-63
2022/01/11 03:35:57;;;;;;;11.63;8.48;;;2.50;99.90;;;;;;4896249;29;20324;-63
2022/01/11 03:38:26;;;;;;;8.13;7.30;;;2.60;99.90;;;;;;4902750;29;20236;-64
2022/01/11 03:40:54;;;;;;;9.68;7.65;;;2.80;99.90;;;;;;4900453;29;20292;-63
2022/01/11 03:43:24;;;;;;;10.30;9.00;;;3.00;99.90;;;;;;4896413;29;20239;-62
2022/01/11 03:45:52;;;;;;;10.25;7.78;;;3.20;99.90;;;;;;4896495;29;20303;-63
2022/01/11 03:48:22;;;;;;;8.70;7.68;;;3.30;99.90;;;;;;4896593;29;20690;-62
2022/01/11 03:50:53;;;;;;;10.70;8.00;;;3.40;99.90;;;;;;4896493;29;20232;-62
2022/01/11 03:53:26;;;;;;;8.20;6.95;;;3.50;99.90;;;;;;4889342;29;20274;-63
2022/01/11 03:56:21;;;;;;;9.48;6.57;;;3.60;99.90;;;;;;4896526;29;20296;-63
2022/01/11 03:58:50;;;;;;;10.43;7.97;;;3.70;99.90;;;;;;4896519;29;20299;-63
2022/01/11 04:01:19;;;;;;;10.10;7.88;;;3.80;99.90;;;;;;4896491;29;20255;-63
2022/01/11 04:03:49;;;;;;;8.52;7.72;;;3.90;99.90;;;;;;4895929;29;20301;-63
2022/01/11 04:06:17;;;;;;;15.18;8.23;;;3.90;99.90;;;;;;4896272;29;20279;-63
2022/01/11 04:08:46;;;;;;;11.85;7.43;;;3.80;99.90;;;;;;4896216;29;20300;-63
2022/01/11 04:11:14;;;;;;;11.52;8.20;;;3.70;99.90;;;;;;4896568;29;20316;-62
2022/01/11 04:13:42;;;;;;;8.50;7.60;;;3.70;99.90;;;;;;4896165;29;20210;-63
2022/01/11 04:16:10;;;;;;;9.13;7.90;;;3.60;99.90;;;;;;4896329;29;20257;-63
2022/01/11 04:18:38;;;;;;;9.68;7.60;;;3.60;99.90;;;;;;4896058;29;20205;-64
2022/01/11 04:21:08;;;;;;;11.30;8.40;;;3.60;99.90;;;;;;4896474;29;20245;-63
2022/01/11 04:23:36;;;;;;;9.20;7.80;;;3.60;99.90;;;;;;4896120;29;20213;-64
2022/01/11 04:26:04;;;;;;;9.98;7.20;;;3.70;99.90;;;;;;4896390;29;20320;-63
2022/01/11 04:28:32;;;;;;;8.25;6.80;;;3.70;99.90;;;;;;4896308;29;20252;-63
2022/01/11 04:31:00;;;;;;;9.73;7.32;;;3.70;99.90;;;;;;4896175;29;20253;-63
2022/01/11 04:33:30;;;;;;;7.93;7.13;;;3.80;99.90;;;;;;4899977;29;20209;-62
2022/01/11 04:35:59;;;;;;;14.32;7.45;;;3.80;99.90;;;;;;4897275;29;20261;-63
2022/01/11 04:38:31;;;;;;;9.95;7.45;;;3.40;99.90;;;;;;4889978;29;20296;-63
2022/01/11 04:40:59;;;;;;;16.27;8.60;;;3.40;99.90;;;;;;4896211;29;20205;-63
2022/01/11 04:43:27;;;;;;;10.70;7.88;;;3.40;99.90;;;;;;4899038;29;20228;-63
2022/01/11 04:45:55;;;;;;;9.60;7.85;;;3.50;99.90;;;;;;4901027;29;20229;-63
2022/01/11 04:48:23;;;;;;;8.50;7.60;;;3.70;99.90;;;;;;4896101;29;20675;-63
2022/01/11 04:50:51;;;;;;;8.55;7.55;;;3.90;99.90;;;;;;4895704;29;20252;-64
2022/01/11 04:53:19;;;;;;;8.45;7.43;;;4.10;99.90;;;;;;4895852;29;20209;-62
2022/01/11 04:55:48;;;;;;;10.43;6.70;;;4.00;99.90;;;;;;4895949;29;20328;-62
2022/01/11 04:58:17;;;;;;;10.18;7.07;;;4.00;99.90;;;;;;4895817;29;20730;-63
2022/01/11 05:00:45;;;;;;;7.20;6.60;;;3.80;99.90;;;;;;4895771;29;20236;-63
2022/01/11 05:03:13;;;;;;;7.93;7.15;;;4.00;99.90;;;;;;4895508;29;20253;-63
2022/01/11 05:05:41;;;;;;;8.80;7.63;;;4.00;99.90;;;;;;4898205;29;20719;-64
2022/01/11 05:08:09;;;;;;;8.45;7.65;;;4.00;99.90;;;;;;4899243;29;20324;-64
2022/01/11 05:10:42;;;;;;;8.30;6.60;;;3.80;99.90;;;;;;4898751;29;20256;-63
2022/01/11 05:13:12;;;;;;;7.32;6.57;;;3.70;99.90;;;;;;4899082;29;20244;-62
2022/01/11 05:15:41;;;;;;;8.70;7.90;;;3.70;99.90;;;;;;4899151;29;20226;-63
2022/01/11 05:18:10;;;;;;;9.20;8.10;;;3.60;99.90;;;;;;4899199;29;20272;-63
2022/01/11 05:20:40;;;;;;;8.35;7.15;;;3.40;99.90;;;;;;4898615;29;20261;-62
2022/01/11 05:23:09;;;;;;;9.70;7.63;;;3.20;99.90;;;;;;4898733;29;20208;-63
2022/01/11 05:25:37;;;;;;;8.60;6.72;;;3.30;99.90;;;;;;4898912;29;20258;-63
2022/01/11 05:28:05;;;;;;;8.05;7.25;;;3.40;99.90;;;;;;4898879;29;20280;-62
2022/01/11 05:30:34;;;;;;;10.48;6.47;;;3.60;99.90;;;;;;4898358;29;20315;-63
2022/01/11 05:33:03;;;;;;;9.45;7.22;;;3.70;99.90;;;;;;4898704;29;20738;-62
2022/01/11 05:35:31;;;;;;;8.02;7.28;;;3.90;99.90;;;;;;4896198;29;20658;-61
2022/01/11 05:37:59;;;;;;;12.07;7.38;;;4.00;99.90;;;;;;4897877;29;20808;-63
2022/01/11 05:40:27;;;;;;;7.65;6.75;;;4.00;99.90;;;;;;4890821;29;20209;-63
2022/01/11 05:42:55;;;;;;;10.30;7.93;;;3.60;99.90;;;;;;4894505;29;20205;-63
2022/01/11 05:45:23;;;;;;;9.10;7.15;;;3.30;99.90;;;;;;4894048;29;20304;-63
2022/01/11 05:47:53;;;;;;;7.90;7.10;;;3.10;99.90;;;;;;4894223;29;20269;-63
2022/01/11 05:50:22;;;;;;;8.02;7.22;;;2.80;99.90;;;;;;4895324;29;20253;-63
2022/01/11 05:52:50;;;;;;;8.50;7.70;;;2.60;99.90;;;;;;4894739;29;20240;-63
2022/01/11 05:55:19;;;;;;;8.25;7.43;;;2.50;99.90;;;;;;4892994;29;20234;-63
2022/01/11 05:57:47;;;;;;;7.50;6.90;;;2.50;99.90;;;;;;4893194;29;20830;-63
2022/01/11 06:00:16;;;;;;;11.27;8.95;;;2.40;99.90;;;;;;4892614;29;20205;-63
2022/01/11 06:02:47;;;;;;;8.35;7.55;;;2.40;99.90;;;;;;4892659;29;20237;-63
2022/01/11 06:05:17;;;;;;;9.60;8.07;;;2.30;99.90;;;;;;4892848;29;20289;-63
2022/01/11 06:07:45;;;;;;;8.50;7.60;;;2.20;99.90;;;;;;4893305;29;20265;-63
2022/01/11 06:10:14;;;;;;;9.07;7.82;;;2.10;99.90;;;;;;4901354;29;20307;-63
2022/01/11 06:12:42;;;;;;;11.48;8.48;;;2.20;99.90;;;;;;4895194;29;20300;-64
2022/01/11 06:15:11;;;;;;;9.02;8.18;;;2.20;99.90;;;;;;4890945;29;20288;-63
2022/01/11 06:17:39;;;;;;;9.27;8.43;;;2.20;99.90;;;;;;4896188;29;20264;-63
2022/01/11 06:20:08;;;;;;;9.30;8.32;;;2.20;99.90;;;;;;4892996;29;20213;-63
2022/01/11 06:22:38;;;;;;;9.05;8.18;;;2.10;99.90;;;;;;4892711;29;20304;-62
2022/01/11 06:25:07;;;;;;;8.80;8.05;;;2.10;99.90;;;;;;4892711;29;20205;-63
2022/01/11 06:27:39;;;;;;;9.50;8.68;;;2.10;99.90;;;;;;4892922;29;20296;-63
2022/01/11 06:30:15;;;;;;;8.32;7.63;;;2.10;99.90;;;;;;4886982;29;20280;-62
2022/01/11 06:32:44;;;;;;;8.55;7.75;;;2.10;99.90;;;;;;4891438;29;20213;-63
2022/01/11 06:35:13;;;;;;;8.10;7.40;;;2.20;99.90;;;;;;4891922;29;20198;-63
2022/01/11 06:37:44;;;;;;;9.23;8.35;;;2.20;99.90;;;;;;4855183;29;20672;-63
2022/01/11 06:40:13;;;;;;;10.95;9.50;;;2.10;99.90;;;;;;4855126;29;20650;-60
2022/01/11 06:42:41;;;;;;;12.80;11.43;;;3.70;99.90;;;;;;4855148;29;20246;-63
2022/01/11 06:45:10;;;;;;;21.77;11.35;;;5.90;99.90;;;;;;4855322;29;20215;-62
2022/01/11 06:47:39;;;;;;;10.63;7.07;;;7.00;99.90;;;;;;4855045;29;20241;-63
2022/01/11 06:50:08;;;;;;;8.20;5.28;;;8.20;99.90;;;;;;4854493;29;20278;-61
2022/01/11 06:52:36;;;;;;;11.77;5.47;;;9.20;99.90;;;;;;4855089;29;20692;-62
2022/01/11 06:55:06;;;;;;;6.00;5.45;;;9.50;99.90;;;;;;4856695;29;20664;-62
2022/01/11 06:57:35;;;;;;;5.40;4.80;;;9.90;99.90;;;;;;4866089;29;20317;-61
2022/01/11 07:00:04;;;;;;;4.55;4.15;;;8.70;99.90;;;;;;4854886;29;20242;-63
2022/01/11 07:02:32;;;;;;;6.88;5.05;;;7.70;99.90;;;;;;4854503;29;20207;-62
2022/01/11 07:05:00;;;;;;;5.72;4.47;;;6.70;99.90;;;;;;4854844;29;20235;-62
2022/01/11 07:07:28;;;;;;;4.85;4.40;;;5.60;99.90;;;;;;4854808;29;20230;-62
2022/01/11 07:09:56;;;;;;;6.07;5.47;;;5.00;99.90;;;;;;4854689;29;20596;-63
2022/01/11 07:12:26;;;;;;;6.25;4.72;;;4.50;99.90;;;;;;4854591;29;20345;-62
2022/01/11 07:14:53;;;;;;;7.40;6.30;;;4.00;99.90;;;;;;4854611;29;20318;-62
2022/01/11 07:17:23;;;;;;;7.07;5.78;;;3.40;99.90;;;;;;4854623;29;20326;-62
2022/01/11 07:19:50;;;;;;;6.53;5.82;;;3.10;99.90;;;;;;4854554;29;20318;-64
2022/01/11 07:22:18;;;;;;;6.63;5.88;;;2.90;99.90;;;;;;4853706;29;20340;-62
2022/01/11 07:24:46;;;;;;;8.23;6.25;;;2.60;99.90;;;;;;4870382;29;20212;-62
2022/01/11 07:27:14;;;;;;;8.43;6.05;;;2.50;99.90;;;;;;4859422;29;20823;-64
2022/01/11 07:29:43;;;;;;;7.10;6.40;;;2.50;99.90;;;;;;4854447;29;20240;-62
2022/01/11 07:32:11;;;;;;;7.18;6.53;;;2.50;99.90;;;;;;4853801;29;20310;-62
2022/01/11 07:34:39;;;;;;;7.53;6.82;;;2.40;99.90;;;;;;4854215;29;20305;-63
2022/01/11 07:37:07;;;;;;;8.45;7.75;;;2.50;99.90;;;;;;4884432;29;20237;-63
2022/01/11 07:39:35;;;;;;;8.30;7.50;;;2.50;99.90;;;;;;4896468;29;20304;-63
2022/01/11 07:42:03;;;;;;;9.18;7.85;;;2.50;99.90;;;;;;4895844;29;20289;-63
2022/01/11 07:44:31;;;;;;;8.13;7.43;;;2.50;99.90;;;;;;4896803;29;20625;-63
2022/01/11 07:47:04;;;;;;;8.35;7.55;;;2.40;99.90;;;;;;4895867;29;20225;-63
2022/01/11 07:49:36;;;;;;;7.32;6.63;;;2.40;99.90;;;;;;4895609;29;20675;-62
2022/01/11 07:52:05;;;;;;;8.10;7.40;;;2.40;99.90;;;;;;4896253;29;20268;-63
2022/01/11 07:54:33;;;;;;;8.95;8.05;;;2.40;99.90;;;;;;4896350;29;20237;-62
2022/01/11 07:57:00;;;;;;;9.20;8.27;;;2.40;99.90;;;;;;4896332;29;20308;-63
2022/01/11 07:59:28;;;;;;;9.02;8.13;;;2.40;99.90;;;;;;4896374;29;20205;-62
2022/01/11 08:02:17;;;;;;;9.13;8.32;;;2.50;99.90;;;;;;4895906;29;20235;-63
2022/01/11 08:04:46;;;;;;;11.18;10.07;;;2.50;99.90;;;;;;4896242;29;20236;-63
2022/01/11 08:07:13;;;;;;;13.18;11.00;;;2.60;99.90;;;;;;4896256;29;20766;-63
2022/01/11 08:09:41;;;;;;;12.65;11.50;;;2.70;99.90;;;;;;4896274;29;20287;-63
2022/01/11 08:12:10;;;;;;;11.73;10.52;;;2.70;99.90;;;;;;4895817;29;20675;-62
2022/01/11 08:14:37;;;;;;;13.68;11.35;;;2.70;99.90;;;;;;4896289;29;20814;-63
2022/01/11 08:17:05;;;;;;;9.80;8.80;;;2.70;99.90;;;;;;4896270;29;20611;-63
2022/01/11 08:19:34;;;;;;;11.55;9.95;;;2.60;99.90;;;;;;4896207;29;20241;-63
2022/01/11 08:22:03;;;;;;;11.20;10.10;;;2.70;99.90;;;;;;4895984;29;20637;-62
2022/01/11 08:24:32;;;;;;;14.88;13.10;;;2.60;99.90;;;;;;4896257;29;20296;-63
2022/01/11 08:27:00;;;;;;;11.98;10.15;;;2.70;99.90;;;;;;4896387;29;20271;-63
2022/01/11 08:29:28;;;;;;;12.25;8.30;;;2.80;99.90;;;;;;4896593;29;20426;-63
2022/01/11 08:31:56;;;;;;;14.48;13.02;;;2.80;99.90;;;;;;4895749;29;20263;-62
2022/01/11 08:34:24;;;;;;;10.20;9.30;;;2.80;99.90;;;;;;4895877;29;20212;-62
2022/01/11 08:36:55;;;;;;;17.50;15.90;;;2.80;99.90;;;;;;4895924;29;20719;-63
2022/01/11 08:39:23;;;;;;;15.95;14.55;;;2.80;99.90;;;;;;4896980;29;20209;-63
2022/01/11 08:41:51;;;;;;;19.33;17.45;;;2.70;99.90;;;;;;4899575;29;20653;-63
2022/01/11 08:44:20;;;;;;;16.13;14.48;;;2.80;99.90;;;;;;4899608;29;20209;-61
2022/01/11 08:46:48;;;;;;;14.82;13.43;;;2.90;99.90;;;;;;4899510;29;20225;-63
2022/01/11 08:49:17;;;;;;;19.13;17.15;;;3.00;99.90;;;;;;4899728;29;20209;-62
2022/01/11 08:51:45;;;;;;;22.60;20.45;;;3.10;99.90;;;;;;4899236;29;20252;-63
2022/01/11 08:54:15;;;;;;;16.50;14.93;;;3.20;99.90;;;;;;4899385;29;20240;-63
2022/01/11 08:56:43;;;;;;;13.25;11.48;;;3.30;99.90;;;;;;4899362;29;20260;-64
2022/01/11 08:59:11;;;;;;;11.32;10.23;;;3.30;99.90;;;;;;4899022;29;20679;-63
2022/01/11 09:01:39;;;;;;;10.90;9.75;;;3.20;99.90;;;;;;4899423;29;20528;-63
2022/01/11 09:04:08;;;;;;;10.95;9.95;;;3.30;99.90;;;;;;4898902;29;20213;-63
2022/01/11 09:06:36;;;;;;;15.52;9.45;;;3.30;99.90;;;;;;4899098;29;20264;-64
2022/01/11 09:09:17;;;;;;;10.00;9.07;;;3.30;99.90;;;;;;4893663;29;20205;-64
2022/01/11 09:11:45;;;;;;;15.13;9.43;;;3.50;99.90;;;;;;4898879;29;20321;-64
2022/01/11 09:14:13;;;;;;;11.32;9.98;;;3.50;99.90;;;;;;4899199;29;20206;-64
2022/01/11 09:16:41;;;;;;;11.73;10.63;;;3.50;99.90;;;;;;4899136;29;20309;-63
2022/01/11 09:19:12;;;;;;;10.48;9.35;;;3.50;99.90;;;;;;4899082;29;20236;-64
2022/01/11 09:21:40;;;;;;;9.68;7.70;;;3.60;99.90;;;;;;4898772;29;20217;-64
2022/01/11 09:24:10;;;;;;;6.97;6.38;;;3.60;99.90;;;;;;4898718;29;20249;-63
2022/01/11 09:26:39;;;;;;;7.15;6.45;;;3.50;99.90;;;;;;4899041;29;20261;-64
2022/01/11 09:29:07;;;;;;;5.75;5.10;;;3.50;99.90;;;;;;4898869;29;20309;-64
2022/01/11 09:31:35;;;;;;;6.75;6.05;;;3.40;99.90;;;;;;4898537;29;20754;-65
2022/01/11 09:34:03;;;;;;;6.68;5.68;;;3.40;99.90;;;;;;4898273;29;20205;-64
2022/01/11 09:36:31;;;;;;;5.32;4.35;;;3.50;99.90;;;;;;4898533;29;20272;-63
2022/01/11 09:38:59;;;;;;;4.45;4.05;;;3.60;99.90;;;;;;4898716;29;20296;-64
2022/01/11 09:41:27;;;;;;;5.57;5.07;;;3.80;99.90;;;;;;4898539;29;20288;-64
2022/01/11 09:43:57;;;;;;;5.00;4.60;;;3.70;99.90;;;;;;4898579;29;20265;-64
2022/01/11 09:46:25;;;;;;;6.82;5.20;;;3.90;99.90;;;;;;4898574;29;20301;-64
2022/01/11 09:48:53;;;;;;;6.13;5.63;;;3.90;99.90;;;;;;4898634;29;20674;-64
2022/01/11 09:51:21;;;;;;;8.25;5.03;;;4.00;99.90;;;;;;4897187;29;20303;-64
2022/01/11 09:53:49;;;;;;;9.13;5.60;;;4.00;99.90;;;;;;4898179;29;20333;-64
2022/01/11 09:56:17;;;;;;;5.85;5.35;;;4.10;99.90;;;;;;4898099;29;20272;-63
2022/01/11 09:58:46;;;;;;;6.30;5.70;;;4.10;99.90;;;;;;4898494;29;20237;-64
2022/01/11 10:01:15;;;;;;;5.85;5.40;;;4.10;99.90;;;;;;4898025;29;20622;-64
2022/01/11 10:03:58;;;;;;;6.40;5.90;;;4.10;99.90;;;;;;4897735;29;20212;-64
2022/01/11 10:06:27;;;;;;;5.32;4.82;;;4.10;99.90;;;;;;4898115;29;20225;-64
2022/01/11 10:09:12;;;;;;;7.15;4.97;;;4.20;99.90;;;;;;4898148;29;20731;-63
2022/01/11 10:11:42;;;;;;;6.35;5.55;;;4.30;99.90;;;;;;4898023;29;20218;-64
2022/01/11 10:14:31;;;;;;;7.38;5.15;;;4.40;99.90;;;;;;4897774;29;20221;-64
2022/01/11 10:17:10;;;;;;;5.07;4.68;;;4.30;99.90;;;;;;4898072;29;20316;-64
2022/01/11 10:19:40;;;;;;;5.72;5.22;;;4.40;99.90;;;;;;4898166;29;20205;-64
2022/01/11 10:22:10;;;;;;;6.93;5.10;;;4.50;99.90;;;;;;4891323;29;20663;-64
2022/01/11 10:24:42;;;;;;;6.40;5.80;;;4.60;99.90;;;;;;4891977;29;20237;-65
2022/01/11 10:27:15;;;;;;;7.13;5.93;;;4.70;99.90;;;;;;4892586;29;20272;-64
2022/01/11 10:29:44;;;;;;;7.15;5.80;;;4.80;99.90;;;;;;4897869;29;20237;-63
2022/01/11 10:32:20;;;;;;;7.72;6.30;;;4.90;99.90;;;;;;4897190;29;20292;-64
2022/01/11 10:34:51;;;;;;;7.75;6.78;;;5.00;99.90;;;;;;4906255;29;20665;-64
2022/01/11 10:37:31;;;;;;;8.07;5.93;;;5.00;99.90;;;;;;4966277;23;20231;-61
2022/01/11 10:40:10;;;;;;;6.78;5.43;;;5.00;99.90;;;;;;4954126;28;20231;-62
2022/01/11 10:42:45;;;;;;;7.53;6.30;;;5.10;99.90;;;;;;4947941;28;20199;-62
2022/01/11 10:45:15;;;;;;;7.22;6.53;;;5.00;99.90;;;;;;4954623;28;20254;-62
2022/01/11 10:47:47;;;;;;;8.45;6.32;;;5.00;99.90;;;;;;4954164;29;20266;-61
2022/01/11 10:50:18;;;;;;;7.20;6.50;;;5.10;99.90;;;;;;4954064;29;20207;-62
2022/01/11 10:52:47;;;;;;;6.82;6.05;;;5.10;99.90;;;;;;4953318;29;20219;-61
2022/01/11 10:55:18;;;;;;;9.50;6.55;;;5.20;99.90;;;;;;4954004;29;20486;-61
2022/01/11 10:57:52;;;;;;;8.38;6.82;;;5.30;99.90;;;;;;4953830;29;20310;-62
2022/01/11 11:00:26;;;;;;;7.07;6.40;;;5.30;99.90;;;;;;4953995;29;20231;-62
2022/01/11 11:02:58;;;;;;;9.93;7.40;;;5.30;99.90;;;;;;4942193;28;20294;-62
2022/01/11 11:05:30;;;;;;;9.65;7.85;;;5.40;99.90;;;;;;4950242;29;20211;-62
2022/01/11 11:08:17;;;;;;;19.02;14.38;;;5.40;99.90;;;;;;4953631;28;20706;-61
2022/01/11 11:10:49;;;;;;;15.05;11.48;;;5.60;99.90;;;;;;4953629;28;20292;-62
2022/01/11 11:13:20;;;;;;;11.93;8.05;;;5.60;99.90;;;;;;4953635;28;20637;-62
2022/01/11 11:15:51;;;;;;;8.38;7.22;;;5.80;99.90;;;;;;4953635;28;20294;-61
2022/01/11 11:18:32;;;;;;;8.02;7.10;;;5.90;99.90;;;;;;4953602;29;20669;-62
2022/01/11 11:21:18;;;;;;;10.05;8.38;;;5.90;99.90;;;;;;4953555;29;20742;-61
2022/01/11 11:23:46;;;;;;;14.00;9.80;;;5.90;99.90;;;;;;4953016;29;20657;-62
2022/01/11 11:26:15;;;;;;;12.60;8.85;;;5.90;99.90;;;;;;4953261;29;20317;-62
2022/01/11 11:28:42;;;;;;;9.50;8.50;;;5.80;99.90;;;;;;4953393;28;20313;-62
2022/01/11 11:31:10;;;;;;;11.88;7.50;;;5.90;99.90;;;;;;4952613;29;20231;-61
2022/01/11 11:33:42;;;;;;;9.27;8.18;;;5.90;99.90;;;;;;4947701;28;20215;-60
2022/01/11 11:36:12;;;;;;;8.07;7.28;;;6.00;99.90;;;;;;4933821;29;20235;-61
2022/01/11 11:38:44;;;;;;;8.25;7.10;;;5.90;99.90;;;;;;4945710;29;20242;-63
2022/01/11 11:41:15;;;;;;;8.00;7.18;;;5.80;99.90;;;;;;4944559;29;20606;-62
2022/01/11 11:43:43;;;;;;;12.60;7.90;;;5.80;99.90;;;;;;4953101;29;20187;-61
2022/01/11 11:46:11;;;;;;;9.60;7.55;;;5.80;99.90;;;;;;4953038;28;20778;-62
2022/01/11 11:48:40;;;;;;;11.10;8.05;;;5.80;99.90;;;;;;4953369;29;20211;-62
2022/01/11 11:51:12;;;;;;;12.10;8.57;;;5.80;99.90;;;;;;4953071;28;20285;-62
2022/01/11 11:53:41;;;;;;;11.75;9.98;;;5.80;99.90;;;;;;4952587;29;20274;-62
2022/01/11 11:56:14;;;;;;;11.85;9.00;;;5.80;99.90;;;;;;4952962;29;20652;-62
2022/01/11 11:58:43;;;;;;;12.13;8.63;;;5.90;99.90;;;;;;4953012;29;20199;-62
2022/01/11 12:01:44;;;;;;;12.90;9.60;;;5.90;99.90;;;;;;4952606;28;20203;-62
2022/01/11 12:04:16;;;;;;;12.63;9.45;;;6.00;99.90;;;;;;4934929;29;20259;-62
2022/01/11 12:06:45;;;;;;;15.02;10.00;;;6.00;99.90;;;;;;4952812;29;20243;-62
2022/01/11 12:09:15;;;;;;;13.05;9.13;;;6.00;99.90;;;;;;4953006;29;20243;-62
2022/01/11 12:11:45;;;;;;;13.60;9.93;;;6.10;99.90;;;;;;4952958;29;20302;-62
2022/01/11 12:14:30;;;;;;;14.07;10.23;;;6.10;99.90;;;;;;4953208;28;20842;-63
2022/01/11 12:16:58;;;;;;;13.55;9.82;;;6.10;99.90;;;;;;4956852;29;20234;-62
2022/01/11 12:19:45;;;;;;;16.33;11.32;;;6.10;99.90;;;;;;4956748;28;20290;-62
2022/01/11 12:22:25;;;;;;;12.25;9.90;;;6.20;99.90;;;;;;4956320;29;20227;-62
2022/01/11 12:24:55;;;;;;;12.32;9.85;;;6.20;99.90;;;;;;4956706;28;20234;-63
2022/01/11 12:27:25;;;;;;;10.93;9.82;;;6.20;99.90;;;;;;4956560;29;20223;-62
2022/01/11 12:29:59;;;;;;;14.98;10.55;;;6.20;99.90;;;;;;4956664;29;20672;-62
2022/01/11 12:32:29;;;;;;;16.15;11.25;;;6.20;99.90;;;;;;4953572;29;20242;-62
2022/01/11 12:35:02;;;;;;;12.93;10.52;;;6.20;99.90;;;;;;4949591;29;20302;-62
2022/01/11 12:37:33;;;;;;;16.42;11.85;;;6.20;99.90;;;;;;4956261;29;20239;-62
2022/01/11 12:40:12;;;;;;;12.35;10.55;;;6.10;99.90;;;;;;4956428;29;20235;-62
2022/01/11 12:42:51;;;;;;;18.60;12.25;;;6.10;99.90;;;;;;4945144;29;20203;-62
2022/01/11 12:45:40;;;;;;;15.98;12.15;;;6.10;99.90;;;;;;4956509;29;20192;-62
2022/01/11 12:48:09;;;;;;;14.57;11.50;;;6.10;99.90;;;;;;4956281;29;20215;-62
2022/01/11 12:50:56;;;;;;;13.30;11.48;;;6.10;99.90;;;;;;4956037;29;20656;-63
2022/01/11 12:53:24;;;;;;;14.68;11.60;;;6.00;99.90;;;;;;4955694;29;20254;-62
2022/01/11 12:55:56;;;;;;;17.17;11.15;;;6.10;99.90;;;;;;4956193;29;20582;-62
2022/01/11 12:58:25;;;;;;;13.75;10.48;;;6.20;99.90;;;;;;4956190;29;20661;-62
2022/01/11 13:00:53;;;;;;;12.90;10.27;;;6.20;99.90;;;;;;4955749;29;20303;-62
2022/01/11 13:03:23;;;;;;;13.85;11.18;;;6.20;99.90;;;;;;4944548;29;20207;-62
2022/01/11 13:05:54;;;;;;;13.02;10.85;;;6.20;99.90;;;;;;4953766;29;20748;-61
2022/01/11 13:08:28;;;;;;;12.73;10.85;;;6.20;99.90;;;;;;4956021;29;20259;-62